createdAt,value
2022-10-29T00:00:43.817Z,47.38
2022-10-29T00:03:48.415Z,54.58
2022-10-29T00:09:58.545Z,51.30
2022-10-29T00:13:02.578Z,42.10
2022-10-29T00:16:19.159Z,47.03
2022-10-29T00:19:21.372Z,44.78
2022-10-29T00:22:24.043Z,47.95
2022-10-29T00:25:26.268Z,43.00
2022-10-29T00:28:29.202Z,50.28
2022-10-29T00:31:31.479Z,38.47
2022-10-29T00:34:34.086Z,39.70
2022-10-29T00:37:36.417Z,41.58
2022-10-29T00:40:38.993Z,31.65
2022-10-29T00:43:45.840Z,39.17
2022-10-29T00:46:52.409Z,42.42
2022-10-29T00:49:59.022Z,40.03
2022-10-29T00:53:02.407Z,35.50
2022-10-29T00:56:05.741Z,38.80
2022-10-29T00:59:09.378Z,35.45
2022-10-29T01:02:12.158Z,39.95
2022-10-29T01:05:19.937Z,41.30
2022-10-29T01:08:22.675Z,42.75
2022-10-29T01:12:04.360Z,42.72
2022-10-29T01:15:17.447Z,47.22
2022-10-29T01:18:24.787Z,53.67
2022-10-29T01:21:34.515Z,55.00
2022-10-29T01:24:49.276Z,50.33
2022-10-29T01:28:12.839Z,53.30
2022-10-29T01:31:15.382Z,56.63
2022-10-29T01:34:25.655Z,54.03
2022-10-29T01:37:50.139Z,55.17
2022-10-29T01:41:04.772Z,54.88
2022-10-29T01:44:30.277Z,53.15
2022-10-29T01:47:40.699Z,53.60
2022-10-29T01:50:48.000Z,53.28
2022-10-29T01:53:51.575Z,63.63
2022-10-29T01:56:58.645Z,65.10
2022-10-29T02:00:06.071Z,67.18
2022-10-29T02:03:22.026Z,68.37
2022-10-29T02:06:42.209Z,73.75
2022-10-29T02:09:56.470Z,63.75
2022-10-29T02:12:59.742Z,65.40
2022-10-29T02:16:06.763Z,76.00
2022-10-29T02:19:09.356Z,70.87
2022-10-29T02:22:11.556Z,59.90
2022-10-29T02:25:14.083Z,59.20
2022-10-29T02:28:16.395Z,62.85
2022-10-29T02:31:18.920Z,58.65
2022-10-29T02:34:21.120Z,57.08
2022-10-29T02:37:23.614Z,57.17
2022-10-29T02:40:25.795Z,70.28
2022-10-29T02:43:28.293Z,55.53
2022-10-29T02:46:30.627Z,57.00
2022-10-29T02:49:33.117Z,63.25
2022-10-29T02:52:35.299Z,61.45
2022-10-29T02:55:37.855Z,57.20
2022-10-29T02:58:40.089Z,61.45
2022-10-29T03:01:42.668Z,63.53
2022-10-29T03:04:44.963Z,66.12
2022-10-29T03:07:47.807Z,64.20
2022-10-29T03:10:49.996Z,68.05
2022-10-29T03:13:52.524Z,55.67
2022-10-29T03:16:54.746Z,64.78
2022-10-29T03:19:57.240Z,61.50
2022-10-29T03:22:59.454Z,59.78
2022-10-29T03:26:02.283Z,53.70
2022-10-29T03:29:04.496Z,61.17
2022-10-29T03:32:06.990Z,56.85
2022-10-29T03:35:11.006Z,53.85
2022-10-29T03:38:13.551Z,52.55
2022-10-29T03:41:15.778Z,52.42
2022-10-29T03:44:18.251Z,49.40
2022-10-29T03:47:20.469Z,51.55
2022-10-29T03:50:22.944Z,46.65
2022-10-29T03:53:25.936Z,50.55
2022-10-29T03:56:28.502Z,54.20
2022-10-29T03:59:30.697Z,45.42
2022-10-29T04:02:33.333Z,47.20
2022-10-29T04:05:35.903Z,43.15
2022-10-29T04:08:38.655Z,44.25
2022-10-29T04:11:41.136Z,48.77
2022-10-29T04:14:45.717Z,42.08
2022-10-29T04:17:51.145Z,39.65
2022-10-29T04:28:41.395Z,48.22
2022-10-29T04:31:08.349Z,45.05
2022-10-29T04:34:10.576Z,49.58
2022-10-29T04:37:13.092Z,41.88
2022-10-29T04:40:15.486Z,45.20
2022-10-29T04:43:18.367Z,36.47
2022-10-29T04:46:20.599Z,46.03
2022-10-29T04:49:23.238Z,44.40
2022-10-29T04:52:25.775Z,47.88
2022-10-29T04:55:28.983Z,52.10
2022-10-29T04:58:31.241Z,49.47
2022-10-29T05:04:35.966Z,49.08
2022-10-29T05:07:38.468Z,45.45
2022-10-29T05:10:40.729Z,49.13
2022-10-29T05:13:45.172Z,52.58
2022-10-29T05:16:47.698Z,53.20
2022-10-29T05:19:50.241Z,48.22
2022-10-29T05:23:03.993Z,51.88
2022-10-29T05:26:06.528Z,54.47
2022-10-29T05:29:08.720Z,48.95
2022-10-29T05:32:11.225Z,42.13
2022-10-29T05:35:13.556Z,46.78
2022-10-29T05:38:16.822Z,45.95
2022-10-29T05:41:19.082Z,49.55
2022-10-29T05:44:21.589Z,44.80
2022-10-29T05:47:24.069Z,36.83
2022-10-29T05:50:27.218Z,43.13
2022-10-29T05:53:29.463Z,42.08
2022-10-29T05:56:32.017Z,38.65
2022-10-29T05:59:34.223Z,42.55
2022-10-29T06:02:36.754Z,45.35
2022-10-29T06:05:39.306Z,48.75
2022-10-29T06:08:41.614Z,46.53
2022-10-29T06:11:44.086Z,46.78
2022-10-29T06:14:46.312Z,54.40
2022-10-29T06:17:49.159Z,51.75
2022-10-29T06:20:51.397Z,57.72
2022-10-29T06:23:54.222Z,56.95
2022-10-29T06:26:56.423Z,53.60
2022-10-29T06:29:58.969Z,53.10
2022-10-29T06:33:02.320Z,55.55
2022-10-29T06:36:05.382Z,58.45
2022-10-29T06:39:07.681Z,50.22
2022-10-29T06:42:10.200Z,50.05
2022-10-29T06:45:13.126Z,47.97
2022-10-29T06:48:20.663Z,46.83
2022-10-29T06:51:24.301Z,45.25
2022-10-29T06:54:26.848Z,46.63
2022-10-29T06:57:29.871Z,52.22
2022-10-29T07:00:33.753Z,47.17
2022-10-29T07:03:36.073Z,47.65
2022-10-29T07:06:38.589Z,50.42
2022-10-29T07:09:40.860Z,45.35
2022-10-29T07:12:44.498Z,44.25
2022-10-29T07:15:47.185Z,44.67
2022-10-29T07:18:50.042Z,40.30
2022-10-29T07:21:52.296Z,44.15
2022-10-29T07:24:57.207Z,43.97
2022-10-29T07:28:16.250Z,39.15
2022-10-29T07:31:18.934Z,45.47
2022-10-29T07:34:21.142Z,43.28
2022-10-29T07:37:23.855Z,41.05
2022-10-29T07:40:26.214Z,43.05
2022-10-29T07:43:31.001Z,41.47
2022-10-29T07:46:33.331Z,47.30
2022-10-29T07:49:35.958Z,41.47
2022-10-29T07:52:40.072Z,42.30
2022-10-29T07:55:45.216Z,43.70
2022-10-29T07:58:47.692Z,41.20
2022-10-29T08:01:50.362Z,38.13
2022-10-29T08:04:53.012Z,49.65
2022-10-29T08:07:55.962Z,39.10
2022-10-29T08:11:03.341Z,31.37
2022-10-29T08:14:06.432Z,63.50
2022-10-29T08:17:08.969Z,62.25
2022-10-29T08:20:11.862Z,59.35
2022-10-29T08:23:14.836Z,58.00
2022-10-29T08:26:17.138Z,61.67
2022-10-29T08:29:19.907Z,60.20
2022-10-29T08:32:22.190Z,66.20
2022-10-29T08:35:24.731Z,57.35
2022-10-29T08:38:27.028Z,54.85
2022-10-29T08:42:07.189Z,66.82
2022-10-29T08:45:24.325Z,52.90
2022-10-29T08:48:46.586Z,57.60
2022-10-29T08:51:57.807Z,53.55
2022-10-29T08:55:19.802Z,49.78
2022-10-29T08:58:21.937Z,45.05
2022-10-29T09:01:24.931Z,48.97
2022-10-29T09:04:28.963Z,43.75
2022-10-29T09:07:59.696Z,49.85
2022-10-29T09:11:40.910Z,42.08
2022-10-29T09:14:52.639Z,46.47
2022-10-29T09:18:03.576Z,40.58
2022-10-29T09:21:27.223Z,48.63
2022-10-29T09:24:52.690Z,43.65
2022-10-29T09:28:22.092Z,39.92
2022-10-29T09:31:40.785Z,49.83
2022-10-29T09:34:47.449Z,45.20
2022-10-29T09:37:55.054Z,44.92
2022-10-29T09:41:00.031Z,43.78
2022-10-29T09:44:16.895Z,51.00
2022-10-29T09:47:41.235Z,39.08
2022-10-29T09:51:08.313Z,52.97
2022-10-29T09:54:11.677Z,46.35
2022-10-29T09:57:36.430Z,45.10
2022-10-29T10:00:38.928Z,46.55
2022-10-29T10:03:48.918Z,50.53
2022-10-29T10:07:19.179Z,43.90
2022-10-29T10:10:23.621Z,50.55
2022-10-29T10:13:32.019Z,44.50
2022-10-29T10:16:34.676Z,42.53
2022-10-29T10:19:43.528Z,46.17
2022-10-29T10:22:47.419Z,44.08
2022-10-29T10:25:52.801Z,44.03
2022-10-29T10:29:19.197Z,46.95
2022-10-29T10:32:25.758Z,42.53
2022-10-29T10:35:31.964Z,41.50
2022-10-29T10:38:46.795Z,42.60
2022-10-29T10:41:50.919Z,38.67
2022-10-29T10:44:58.014Z,45.40
2022-10-29T10:48:01.580Z,40.50
2022-10-29T10:51:26.225Z,43.60
2022-10-29T10:54:37.326Z,44.60
2022-10-29T10:57:50.059Z,47.75
2022-10-29T11:01:07.132Z,51.67
2022-10-29T11:04:27.969Z,47.55
2022-10-29T11:07:34.429Z,47.90
2022-10-29T11:10:50.143Z,50.97
2022-10-29T11:13:55.052Z,52.65
2022-10-29T11:17:01.347Z,50.72
2022-10-29T11:20:27.653Z,54.33
2022-10-29T11:24:05.179Z,62.88
2022-10-29T11:27:16.280Z,51.63
2022-10-29T11:30:19.930Z,52.03
2022-10-29T11:36:38.980Z,68.82
2022-10-29T11:39:52.157Z,53.38
2022-10-29T11:42:54.582Z,48.55
2022-10-29T11:46:22.152Z,47.42
2022-10-29T11:50:22.163Z,45.10
2022-10-29T11:53:49.933Z,42.13
2022-10-29T11:57:14.318Z,40.95
2022-10-29T12:00:20.322Z,41.10
2022-10-29T12:03:44.154Z,36.25
2022-10-29T12:07:27.609Z,41.10
2022-10-29T12:10:45.722Z,45.03
2022-10-29T12:14:04.110Z,35.38
2022-10-29T12:17:32.852Z,39.30
2022-10-29T12:20:50.195Z,41.92
2022-10-29T12:24:05.959Z,42.70
2022-10-29T12:27:15.271Z,41.55
2022-10-29T12:30:19.328Z,39.08
2022-10-29T12:33:27.531Z,44.72
2022-10-29T12:36:35.586Z,39.25
2022-10-29T12:39:44.795Z,30.75
2022-10-29T12:42:49.567Z,36.20
2022-10-29T12:46:21.088Z,39.53
2022-10-29T12:49:42.638Z,32.58
2022-10-29T12:52:47.695Z,40.17
2022-10-29T12:55:51.812Z,45.17
2022-10-29T12:58:59.752Z,39.53
2022-10-29T13:02:19.560Z,37.33
2022-10-29T13:05:24.584Z,42.33
2022-10-29T13:08:34.550Z,40.03
2022-10-29T13:11:51.482Z,42.67
2022-10-29T13:15:02.190Z,41.25
2022-10-29T13:18:21.040Z,40.70
2022-10-29T13:21:57.228Z,23.95
2022-10-29T13:25:33.440Z,37.92
2022-10-29T13:28:35.911Z,43.87
2022-10-29T13:31:45.704Z,45.80
2022-10-29T13:34:51.856Z,43.42
2022-10-29T13:38:16.363Z,42.88
2022-10-29T13:41:40.301Z,47.72
2022-10-29T13:44:43.239Z,37.67
2022-10-29T13:47:46.481Z,34.15
2022-10-29T13:50:54.345Z,44.40
2022-10-29T13:54:06.147Z,44.08
2022-10-29T13:57:26.193Z,41.35
2022-10-29T14:00:32.546Z,39.70
2022-10-29T14:03:35.157Z,39.95
2022-10-29T14:06:40.033Z,41.65
2022-10-29T14:09:46.955Z,39.55
2022-10-29T14:12:55.745Z,34.55
2022-10-29T14:16:09.613Z,36.03
2022-10-29T14:19:20.954Z,33.67
2022-10-29T14:22:23.404Z,36.65
2022-10-29T14:25:35.866Z,37.50
2022-10-29T14:28:38.374Z,35.55
2022-10-29T14:31:40.636Z,37.05
2022-10-29T14:34:45.314Z,40.40
2022-10-29T14:37:49.270Z,34.70
2022-10-29T14:40:51.984Z,37.10
2022-10-29T14:44:03.290Z,37.28
2022-10-29T14:47:19.647Z,40.70
2022-10-29T14:50:25.990Z,32.38
2022-10-29T14:53:35.220Z,37.08
2022-10-29T14:56:41.900Z,39.33
2022-10-29T14:59:49.520Z,34.00
2022-10-29T15:02:54.565Z,32.78
2022-10-29T15:06:18.010Z,33.55
2022-10-29T15:09:27.999Z,35.15
2022-10-29T15:12:39.038Z,42.75
2022-10-29T15:15:53.552Z,35.13
2022-10-29T15:18:57.922Z,25.70
2022-10-29T15:22:00.309Z,34.05
2022-10-29T15:25:08.371Z,33.55
2022-10-29T15:28:14.814Z,33.08
2022-10-29T15:31:29.533Z,31.95
2022-10-29T15:34:34.704Z,32.15
2022-10-29T15:37:44.041Z,33.70
2022-10-29T15:41:14.102Z,36.00
2022-10-29T15:44:39.746Z,21.35
2022-10-29T15:47:44.627Z,31.67
2022-10-29T15:50:47.302Z,34.60
2022-10-29T15:53:49.922Z,39.05
2022-10-29T15:56:52.786Z,31.60
2022-10-29T15:59:57.379Z,33.85
2022-10-29T16:03:17.412Z,33.97
2022-10-29T16:06:20.247Z,32.97
2022-10-29T16:09:22.593Z,31.55
2022-10-29T16:12:26.009Z,35.17
2022-10-29T16:15:28.406Z,33.63
2022-10-29T16:18:30.942Z,34.95
2022-10-29T16:21:33.386Z,32.20
2022-10-29T16:24:35.968Z,39.50
2022-10-29T16:27:38.285Z,37.70
2022-10-29T16:30:41.056Z,36.55
2022-10-29T16:33:43.346Z,35.00
2022-10-29T16:36:46.537Z,34.22
2022-10-29T16:39:48.774Z,34.35
2022-10-29T16:42:59.453Z,35.38
2022-10-29T16:46:05.268Z,34.55
2022-10-29T16:49:08.220Z,38.08
2022-10-29T16:52:15.130Z,36.20
2022-10-29T16:55:21.402Z,38.92
2022-10-29T16:58:23.855Z,33.92
2022-10-29T17:01:26.557Z,43.55
2022-10-29T17:04:29.051Z,41.28
2022-10-29T17:07:31.605Z,37.30
2022-10-29T17:10:34.859Z,34.05
2022-10-29T17:13:38.172Z,40.17
2022-10-29T17:16:40.515Z,39.53
2022-10-29T17:19:43.068Z,33.38
2022-10-29T17:22:45.489Z,38.40
2022-10-29T17:25:51.644Z,36.70
2022-10-29T17:28:53.866Z,33.30
2022-10-29T17:31:56.524Z,33.88
2022-10-29T17:34:59.883Z,32.42
2022-10-29T17:38:02.571Z,34.83
2022-10-29T17:41:05.105Z,43.25
2022-10-29T17:44:07.597Z,37.47
2022-10-29T17:47:11.172Z,44.10
2022-10-29T17:50:13.777Z,43.83
2022-10-29T17:53:16.063Z,48.25
2022-10-29T17:56:18.928Z,51.03
2022-10-29T17:59:21.331Z,54.30
2022-10-29T18:02:24.066Z,49.75
2022-10-29T18:05:26.797Z,44.72
2022-10-29T18:08:30.179Z,45.38
2022-10-29T18:11:33.110Z,51.28
2022-10-29T18:14:35.359Z,54.92
2022-10-29T18:17:37.967Z,57.78
2022-10-29T18:20:40.225Z,52.42
2022-10-29T18:23:49.509Z,60.35
2022-10-29T18:26:52.177Z,66.87
2022-10-29T18:29:54.870Z,54.88
2022-10-29T18:32:57.452Z,49.92
2022-10-29T18:36:00.217Z,63.87
2022-10-29T18:39:06.604Z,59.15
2022-10-29T18:42:09.897Z,57.95
2022-10-29T18:45:12.205Z,56.53
2022-10-29T18:48:14.854Z,58.55
2022-10-29T18:51:28.626Z,55.72
2022-10-29T18:54:31.357Z,58.03
2022-10-29T18:57:34.713Z,61.55
2022-10-29T19:00:41.090Z,59.22
2022-10-29T19:03:51.421Z,56.25
2022-10-29T19:06:57.014Z,59.42
2022-10-29T19:09:59.316Z,62.03
2022-10-29T19:13:01.828Z,62.00
2022-10-29T19:16:12.588Z,58.60
2022-10-29T19:19:17.227Z,58.38
2022-10-29T19:22:22.233Z,55.88
2022-10-29T19:25:25.146Z,59.80
2022-10-29T19:28:29.902Z,58.67
2022-10-29T19:31:38.471Z,57.35
2022-10-29T19:34:48.168Z,55.03
2022-10-29T19:37:58.515Z,54.90
2022-10-29T19:41:03.394Z,55.90
2022-10-29T19:44:06.803Z,56.10
2022-10-29T19:47:11.711Z,57.80
2022-10-29T19:50:16.111Z,58.80
2022-10-29T19:53:18.447Z,62.85
2022-10-29T19:56:23.643Z,55.88
2022-10-29T19:59:31.701Z,57.47
2022-10-29T20:02:39.575Z,58.63
2022-10-29T20:05:44.176Z,56.55
2022-10-29T20:08:47.024Z,54.87
2022-10-29T20:11:49.660Z,57.40
2022-10-29T20:14:51.987Z,55.97
2022-10-29T20:17:55.187Z,57.42
2022-10-29T20:20:57.877Z,62.92
2022-10-29T20:24:01.683Z,68.32
2022-10-29T20:27:04.200Z,64.32
2022-10-29T20:30:07.376Z,70.35
2022-10-29T20:33:10.203Z,62.35
2022-10-29T20:36:12.835Z,66.27
2022-10-29T20:39:15.681Z,61.60
2022-10-29T20:42:21.411Z,64.80
2022-10-29T20:45:28.099Z,63.35
2022-10-29T20:51:32.773Z,64.28
2022-10-29T20:54:36.319Z,63.08
2022-10-29T20:57:38.883Z,62.65
2022-10-29T21:00:41.658Z,63.15
2022-10-29T21:03:44.219Z,59.10
2022-10-29T21:06:47.023Z,59.78
2022-10-29T21:09:49.694Z,58.03
2022-10-29T21:12:52.309Z,57.90
2022-10-29T21:15:54.725Z,56.47
2022-10-29T21:19:02.280Z,52.42
2022-10-29T21:22:04.602Z,52.78
2022-10-29T21:25:07.735Z,51.97
2022-10-29T21:28:11.208Z,51.88
2022-10-29T21:31:13.852Z,54.17
2022-10-29T21:34:16.214Z,55.60
2022-10-29T21:37:18.863Z,54.05
2022-10-29T21:40:21.282Z,52.35
2022-10-29T21:43:26.210Z,51.17
2022-10-29T21:46:31.879Z,55.95
2022-10-29T21:49:34.725Z,60.15
2022-10-29T21:52:37.067Z,58.53
2022-10-29T21:55:39.931Z,56.03
2022-10-29T21:58:42.752Z,50.35
2022-10-29T22:01:50.324Z,44.50
2022-10-29T22:04:53.076Z,50.08
2022-10-29T22:07:56.532Z,81.15
2022-10-29T22:14:03.239Z,39.88
2022-10-29T22:17:05.826Z,42.97
2022-10-29T22:20:08.607Z,41.72
2022-10-29T22:23:11.139Z,38.87
2022-10-29T22:26:15.336Z,41.45
2022-10-29T22:29:17.918Z,40.47
2022-10-29T22:32:20.336Z,44.10
2022-10-29T22:35:22.896Z,44.08
2022-10-29T22:38:25.159Z,47.25
2022-10-29T22:41:29.378Z,42.92
2022-10-29T22:44:31.756Z,41.63
2022-10-29T22:47:34.292Z,44.90
2022-10-29T22:50:36.508Z,43.35
2022-10-29T22:53:39.058Z,45.38
2022-10-29T22:56:41.326Z,46.35
2022-10-29T22:59:43.962Z,42.42
2022-10-29T23:03:12.727Z,37.65
2022-10-29T23:06:18.465Z,38.72
2022-10-29T23:09:20.702Z,38.95
2022-10-29T23:12:23.232Z,38.08
2022-10-29T23:15:28.511Z,43.67
2022-10-29T23:18:31.074Z,45.40
2022-10-29T23:21:34.640Z,45.72
2022-10-29T23:24:37.116Z,49.75
2022-10-29T23:27:39.364Z,50.45
2022-10-29T23:30:41.866Z,44.55
2022-10-29T23:33:49.167Z,45.28
2022-10-29T23:39:54.882Z,53.53
2022-10-29T23:42:57.432Z,52.58
2022-10-29T23:45:59.920Z,56.20
2022-10-29T23:49:02.460Z,49.78
2022-10-29T23:52:07.739Z,48.83
2022-10-29T23:55:10.270Z,51.00
2022-10-29T23:58:13.747Z,52.92
